createdAt,value
2019-01-10T00:02:29.155Z,98650.06
2019-01-10T00:04:59.434Z,98652.30
2019-01-10T00:07:29.680Z,98653.68
2019-01-10T00:09:59.922Z,98657.27
2019-01-10T00:12:39.187Z,98649.00
2019-01-10T00:15:02.118Z,98656.17
2019-01-10T00:17:32.385Z,98652.33
2019-01-10T00:20:02.610Z,98664.50
2019-01-10T00:22:32.883Z,98661.39
2019-01-10T00:25:03.116Z,98656.84
2019-01-10T00:27:33.390Z,98660.72
2019-01-10T00:30:03.639Z,98653.21
2019-01-10T00:32:33.858Z,98664.83
2019-01-10T00:35:04.429Z,98675.16
2019-01-10T00:37:34.693Z,98678.90
2019-01-10T00:40:06.386Z,98674.16
2019-01-10T00:42:36.615Z,98681.05
2019-01-10T00:45:09.344Z,98682.45
2019-01-10T00:47:39.668Z,98677.30
2019-01-10T00:50:13.300Z,98680.19
2019-01-10T00:52:43.601Z,98675.97
2019-01-10T00:55:14.020Z,98673.92
2019-01-10T00:57:44.396Z,98664.20
2019-01-10T01:00:17.803Z,98661.71
2019-01-10T01:02:48.180Z,98669.74
2019-01-10T01:05:18.763Z,98667.92
2019-01-10T01:07:48.989Z,98668.98
2019-01-10T01:10:21.394Z,98667.95
2019-01-10T01:12:58.268Z,98665.26
2019-01-10T01:15:24.040Z,98656.98
2019-01-10T01:17:54.272Z,98665.47
2019-01-10T01:20:25.515Z,98668.66
2019-01-10T01:22:55.848Z,98668.44
2019-01-10T01:25:26.076Z,98657.88
2019-01-10T01:27:56.363Z,98657.12
2019-01-10T01:30:26.946Z,98648.20
2019-01-10T01:32:57.178Z,98649.77
2019-01-10T01:35:27.454Z,98647.84
2019-01-10T01:37:57.679Z,98649.27
2019-01-10T01:40:27.987Z,98657.91
2019-01-10T01:43:07.135Z,98670.45
2019-01-10T01:45:30.189Z,98670.45
2019-01-10T01:48:00.419Z,98671.98
2019-01-10T01:50:30.695Z,98671.98
2019-01-10T01:53:00.936Z,98669.59
2019-01-10T01:55:31.210Z,98662.91
2019-01-10T01:58:01.481Z,98662.91
2019-01-10T02:00:31.714Z,98663.02
2019-01-10T02:03:01.948Z,98663.02
2019-01-10T02:05:32.221Z,98667.34
2019-01-10T02:08:02.458Z,98660.11
2019-01-10T02:10:32.688Z,98660.11
2019-01-10T02:13:02.959Z,98657.79
2019-01-10T02:15:33.196Z,98660.88
2019-01-10T02:18:03.472Z,98660.88
2019-01-10T02:20:33.710Z,98677.95
2019-01-10T02:23:03.955Z,98677.95
2019-01-10T02:25:34.227Z,98683.92
2019-01-10T02:28:04.612Z,98544.58
2019-01-10T02:30:41.758Z,98544.58
2019-01-10T02:33:07.019Z,98671.62
2019-01-10T02:35:37.251Z,98647.17
2019-01-10T02:38:07.530Z,98647.17
2019-01-10T02:40:37.754Z,98646.55
2019-01-10T02:43:08.044Z,98667.20
2019-01-10T02:45:38.277Z,98667.20
2019-01-10T02:48:08.555Z,98655.19
2019-01-10T02:50:39.574Z,98655.32
2019-01-10T02:53:09.838Z,98649.46
2019-01-10T02:55:40.114Z,98649.46
2019-01-10T02:58:10.351Z,98662.00
2019-01-10T03:00:40.626Z,98662.00
2019-01-10T03:03:10.863Z,98670.73
2019-01-10T03:05:41.127Z,98670.73
2019-01-10T03:08:11.373Z,98672.64
2019-01-10T03:10:41.653Z,98677.59
2019-01-10T03:13:12.032Z,98681.51
2019-01-10T03:15:42.440Z,98681.51
2019-01-10T03:18:12.815Z,98669.81
2019-01-10T03:20:43.191Z,98669.81
2019-01-10T03:23:13.663Z,98664.78
2019-01-10T03:25:44.031Z,98652.53
2019-01-10T03:28:14.503Z,98652.53
2019-01-10T03:30:44.846Z,98653.25
2019-01-10T03:33:15.186Z,98638.26
2019-01-10T03:35:45.515Z,98638.26
2019-01-10T03:38:15.893Z,98633.84
2019-01-10T03:40:46.201Z,98630.83
2019-01-10T03:43:16.666Z,98630.83
2019-01-10T03:45:47.005Z,98622.30
2019-01-10T03:48:17.319Z,98640.40
2019-01-10T03:50:47.705Z,98623.09
2019-01-10T03:53:17.999Z,98625.36
2019-01-10T03:55:48.378Z,98626.49
2019-01-10T03:58:18.718Z,98629.67
2019-01-10T04:00:49.100Z,98628.13
2019-01-10T04:03:19.430Z,98628.13
2019-01-10T04:05:49.833Z,98635.91
2019-01-10T04:08:20.185Z,98656.89
2019-01-10T04:10:50.530Z,98657.26
2019-01-10T04:13:20.971Z,98654.06
2019-01-10T04:15:51.565Z,98654.06
2019-01-10T04:18:21.936Z,98660.43
2019-01-10T04:20:52.400Z,98665.03
2019-01-10T04:23:22.820Z,98666.48
2019-01-10T04:25:53.164Z,98659.80
2019-01-10T04:28:23.544Z,98655.58
2019-01-10T04:30:53.841Z,98669.33
2019-01-10T04:33:24.217Z,98670.90
2019-01-10T04:35:54.517Z,98681.20
2019-01-10T04:38:24.861Z,98676.58
2019-01-10T04:40:55.182Z,98686.66
2019-01-10T04:43:25.596Z,98691.14
2019-01-10T04:45:55.894Z,98693.70
2019-01-10T04:48:26.259Z,98710.58
2019-01-10T04:50:56.630Z,98714.50
2019-01-10T04:53:27.042Z,98715.61
2019-01-10T04:55:57.412Z,98701.50
2019-01-10T04:58:27.723Z,98704.50
2019-01-10T05:00:58.100Z,98684.92
2019-01-10T05:03:28.432Z,98695.54
2019-01-10T05:05:58.792Z,98711.13
2019-01-10T05:08:29.160Z,98714.50
2019-01-10T05:10:59.569Z,98715.64
2019-01-10T05:13:29.930Z,98703.47
2019-01-10T05:16:00.426Z,98710.16
2019-01-10T05:18:30.800Z,98710.16
2019-01-10T05:21:01.180Z,98710.78
2019-01-10T05:23:31.520Z,98710.98
2019-01-10T05:26:01.885Z,98715.20
2019-01-10T05:28:32.308Z,98728.06
2019-01-10T05:31:02.754Z,98735.36
2019-01-10T05:33:33.200Z,98736.82
2019-01-10T05:36:03.532Z,98731.03
2019-01-10T05:38:33.926Z,98736.91
2019-01-10T05:41:04.546Z,98751.63
2019-01-10T05:43:34.854Z,98751.63
2019-01-10T05:46:05.307Z,98752.24
2019-01-10T05:48:35.631Z,98753.91
2019-01-10T05:51:06.079Z,98765.23
2019-01-10T05:53:36.453Z,98758.00
2019-01-10T05:56:15.416Z,98767.58
2019-01-10T05:58:39.458Z,98771.80
2019-01-10T06:01:09.756Z,98783.77
2019-01-10T06:03:40.071Z,98776.34
2019-01-10T06:06:10.475Z,98772.23
2019-01-10T06:08:40.788Z,98784.20
2019-01-10T06:11:11.158Z,98787.89
2019-01-10T06:13:41.505Z,98799.22
2019-01-10T06:16:11.923Z,98809.92
2019-01-10T06:18:42.468Z,98800.23
2019-01-10T06:21:16.658Z,98809.30
2019-01-10T06:23:47.103Z,98819.66
2019-01-10T06:26:17.648Z,98712.08
2019-01-10T06:28:48.133Z,98829.41
2019-01-10T06:31:18.431Z,98823.94
2019-01-10T06:33:48.888Z,98828.04
2019-01-10T06:36:19.291Z,98839.78
2019-01-10T06:38:49.730Z,98834.83
2019-01-10T06:41:20.079Z,98840.56
2019-01-10T06:43:50.538Z,98835.81
2019-01-10T06:46:20.872Z,98841.78
2019-01-10T06:48:51.391Z,98836.30
2019-01-10T06:51:22.325Z,98840.64
2019-01-10T06:53:52.717Z,98836.17
2019-01-10T06:56:23.109Z,98832.35
2019-01-10T06:58:53.515Z,98835.16
2019-01-10T07:01:23.922Z,98844.70
2019-01-10T07:03:54.265Z,98848.61
2019-01-10T07:06:24.620Z,98839.30
2019-01-10T07:08:54.939Z,98843.56
2019-01-10T07:11:25.297Z,98861.14
2019-01-10T07:13:55.690Z,98872.14
2019-01-10T07:16:26.475Z,98868.67
2019-01-10T07:18:57.373Z,98872.46
2019-01-10T07:21:27.773Z,98872.20
2019-01-10T07:23:59.540Z,98881.58
2019-01-10T07:26:29.881Z,98888.73
2019-01-10T07:29:00.305Z,98874.16
2019-01-10T07:31:31.290Z,98877.46
2019-01-10T07:34:02.771Z,98877.46
2019-01-10T07:36:33.065Z,98874.91
2019-01-10T07:39:04.693Z,98882.09
2019-01-10T07:41:38.132Z,98884.89
2019-01-10T07:44:10.116Z,98878.84
2019-01-10T07:46:46.447Z,98873.57
2019-01-10T07:49:18.470Z,98868.22
2019-01-10T07:51:48.879Z,98870.92
2019-01-10T07:54:19.287Z,98877.63
2019-01-10T07:56:49.769Z,98874.95
2019-01-10T07:59:20.155Z,98874.95
2019-01-10T08:01:50.490Z,98885.03
2019-01-10T08:04:20.860Z,98891.52
2019-01-10T08:06:51.392Z,98895.24
2019-01-10T08:09:21.770Z,98792.68
2019-01-10T08:12:00.388Z,98901.19
2019-01-10T08:14:24.271Z,98909.11
2019-01-10T08:16:54.661Z,98871.60
2019-01-10T08:19:26.267Z,98896.66
2019-01-10T08:21:56.662Z,98891.86
2019-01-10T08:24:27.078Z,98878.72
2019-01-10T08:26:57.471Z,98878.02
2019-01-10T08:29:27.960Z,98866.93
2019-01-10T08:31:58.283Z,98887.33
2019-01-10T08:34:28.640Z,98882.70
2019-01-10T08:36:59.166Z,98885.27
2019-01-10T08:39:29.514Z,98869.47
2019-01-10T08:41:59.865Z,98867.95
2019-01-10T08:44:30.278Z,98873.33
2019-01-10T08:47:00.595Z,98871.27
2019-01-10T08:49:30.967Z,98885.69
2019-01-10T08:52:01.364Z,98893.97
2019-01-10T08:54:31.750Z,98888.15
2019-01-10T08:57:02.186Z,98878.18
2019-01-10T08:59:32.607Z,98873.27
2019-01-10T09:02:02.965Z,98864.09
2019-01-10T09:04:33.380Z,98861.99
2019-01-10T09:07:03.714Z,98876.44
2019-01-10T09:09:34.062Z,98881.45
2019-01-10T09:12:04.552Z,98873.87
2019-01-10T09:14:35.035Z,98856.75
2019-01-10T09:17:05.534Z,98850.64
2019-01-10T09:19:35.982Z,98844.41
2019-01-10T09:22:06.551Z,98870.14
2019-01-10T09:24:37.086Z,98889.70
2019-01-10T09:27:07.471Z,98880.58
2019-01-10T09:29:37.868Z,98863.98
2019-01-10T09:32:08.301Z,98860.70
2019-01-10T09:34:38.636Z,98866.73
2019-01-10T09:37:08.982Z,98864.89
2019-01-10T09:39:39.347Z,98861.92
2019-01-10T09:42:09.740Z,98853.20
2019-01-10T09:44:40.090Z,98844.27
2019-01-10T09:47:10.448Z,98835.31
2019-01-10T09:49:40.812Z,98824.50
2019-01-10T09:52:11.194Z,98821.59
2019-01-10T09:54:41.608Z,98816.59
2019-01-10T09:57:12.015Z,98730.59
2019-01-10T09:59:42.363Z,98826.92
2019-01-10T10:02:12.802Z,98827.14
2019-01-10T10:04:43.242Z,98822.44
2019-01-10T10:07:13.614Z,98708.06
2019-01-10T10:09:44.034Z,98813.31
2019-01-10T10:12:14.663Z,98803.97
2019-01-10T10:14:45.043Z,98822.79
2019-01-10T10:17:15.431Z,98815.39
2019-01-10T10:19:45.839Z,98816.69
2019-01-10T10:22:16.217Z,98813.22
2019-01-10T10:24:46.614Z,98816.14
2019-01-10T10:27:17.122Z,98715.25
2019-01-10T10:29:47.567Z,98827.18
2019-01-10T10:32:19.369Z,98831.62
2019-01-10T10:34:49.862Z,98831.13
2019-01-10T10:37:20.256Z,98834.45
2019-01-10T10:39:50.596Z,98829.06
2019-01-10T10:42:20.960Z,98819.20
2019-01-10T10:44:51.307Z,98812.23
2019-01-10T10:47:21.792Z,98803.02
2019-01-10T10:49:52.174Z,98805.76
2019-01-10T10:52:22.557Z,98803.87
2019-01-10T10:54:52.935Z,98802.88
2019-01-10T10:57:23.319Z,98789.69
2019-01-10T10:59:53.706Z,98774.08
2019-01-10T11:02:24.162Z,98750.42
2019-01-10T11:04:54.594Z,98760.73
2019-01-10T11:07:25.014Z,98777.58
2019-01-10T11:09:55.398Z,98783.02
2019-01-10T11:12:28.486Z,98779.19
2019-01-10T11:14:58.956Z,98770.30
2019-01-10T11:17:29.387Z,98777.04
2019-01-10T11:20:01.190Z,98771.56
2019-01-10T11:22:31.494Z,98770.25
2019-01-10T11:25:01.796Z,98761.08
2019-01-10T11:27:32.225Z,98773.98
2019-01-10T11:30:02.969Z,98789.73
2019-01-10T11:32:33.323Z,98794.98
2019-01-10T11:35:03.847Z,98784.92
2019-01-10T11:37:34.408Z,98788.08
2019-01-10T11:40:05.639Z,98675.13
2019-01-10T11:42:37.027Z,98794.81
2019-01-10T11:45:09.406Z,98600.05
2019-01-10T11:47:39.882Z,98764.54
2019-01-10T11:50:12.083Z,98760.14
2019-01-10T11:52:43.636Z,98769.94
2019-01-10T11:55:14.233Z,98766.74
2019-01-10T11:57:45.197Z,98769.44
2019-01-10T12:00:21.458Z,98646.94
2019-01-10T12:02:51.986Z,98770.73
2019-01-10T12:05:22.432Z,98757.00
2019-01-10T12:07:53.013Z,98747.12
2019-01-10T12:10:23.782Z,98748.78
2019-01-10T12:12:54.431Z,98745.78
2019-01-10T12:15:26.065Z,98742.86
2019-01-10T12:17:56.704Z,98745.10
2019-01-10T12:20:27.292Z,98743.44
2019-01-10T12:22:57.688Z,98745.68
2019-01-10T12:25:28.024Z,98638.33
2019-01-10T12:27:58.425Z,98759.73
2019-01-10T12:30:29.015Z,98764.45
2019-01-10T12:32:59.426Z,98757.72
2019-01-10T12:35:29.760Z,98753.68
2019-01-10T12:38:00.212Z,98748.02
2019-01-10T12:40:30.919Z,98744.43
2019-01-10T12:43:01.396Z,98626.88
2019-01-10T12:45:32.013Z,98752.47
2019-01-10T12:48:02.430Z,98760.02
2019-01-10T12:50:33.908Z,98769.62
2019-01-10T12:53:08.369Z,98769.62
2019-01-10T12:55:39.313Z,98768.00
2019-01-10T12:58:10.257Z,98761.13
2019-01-10T13:00:40.692Z,98759.10
2019-01-10T13:03:11.028Z,98749.85
2019-01-10T13:05:41.371Z,98750.26
2019-01-10T13:08:11.853Z,98735.92
2019-01-10T13:10:42.217Z,98742.66
2019-01-10T13:13:12.602Z,98732.12
2019-01-10T13:15:42.970Z,98743.59
2019-01-10T13:18:13.308Z,98757.36
2019-01-10T13:20:43.755Z,98759.73
2019-01-10T13:23:14.180Z,98766.19
2019-01-10T13:25:44.552Z,98758.56
2019-01-10T13:28:15.128Z,98750.24
2019-01-10T13:30:45.441Z,98754.39
2019-01-10T13:33:15.909Z,98755.85
2019-01-10T13:35:46.563Z,98526.22
2019-01-10T13:38:16.869Z,98752.09
2019-01-10T13:40:47.243Z,98736.40
2019-01-10T13:43:17.723Z,98742.09
2019-01-10T13:45:48.195Z,98728.92
2019-01-10T13:48:18.650Z,98713.39
2019-01-10T13:50:49.291Z,98724.23
2019-01-10T13:53:19.699Z,98729.89
2019-01-10T13:55:50.033Z,98729.73
2019-01-10T13:58:20.510Z,98741.61
2019-01-10T14:00:50.811Z,98753.13
2019-01-10T14:03:21.181Z,98750.86
2019-01-10T14:05:51.530Z,98756.63
2019-01-10T14:08:22.099Z,98756.42
2019-01-10T14:10:52.510Z,98758.13
2019-01-10T14:13:22.940Z,98757.77
2019-01-10T14:15:53.468Z,98777.07
2019-01-10T14:18:24.103Z,98781.91
2019-01-10T14:20:54.549Z,98783.63
2019-01-10T14:23:24.956Z,98788.86
2019-01-10T14:25:55.424Z,98779.70
2019-01-10T14:28:25.939Z,98783.77
2019-01-10T14:30:56.460Z,98783.80
2019-01-10T14:33:26.877Z,98793.11
2019-01-10T14:35:57.247Z,98813.93
2019-01-10T14:38:27.693Z,98819.84
2019-01-10T14:40:58.294Z,98793.98
2019-01-10T14:43:28.788Z,98766.73
2019-01-10T14:45:59.245Z,98792.20
2019-01-10T14:48:29.586Z,98783.23
2019-01-10T14:51:00.103Z,98761.98
2019-01-10T14:53:30.522Z,98786.83
2019-01-10T14:56:00.910Z,98785.33
2019-01-10T14:58:31.333Z,98805.21
2019-01-10T15:01:01.691Z,98807.74
2019-01-10T15:03:32.053Z,98803.17
2019-01-10T15:06:02.365Z,98793.55
2019-01-10T15:08:32.711Z,98782.48
2019-01-10T15:11:03.138Z,98753.13
2019-01-10T15:13:33.517Z,98730.84
2019-01-10T15:16:04.063Z,98706.55
2019-01-10T15:18:34.484Z,98715.41
2019-01-10T15:21:04.953Z,98695.73
2019-01-10T15:23:36.553Z,98666.53
2019-01-10T15:26:06.999Z,98706.80
2019-01-10T15:28:37.403Z,98721.88
2019-01-10T15:31:07.815Z,98720.84
2019-01-10T15:33:38.262Z,98741.41
2019-01-10T15:36:08.670Z,98758.36
2019-01-10T15:38:39.012Z,98761.47
2019-01-10T15:41:09.470Z,98736.95
2019-01-10T15:43:39.911Z,98728.20
2019-01-10T15:46:10.251Z,98731.70
2019-01-10T15:48:40.623Z,98734.34
2019-01-10T15:51:10.962Z,98742.52
2019-01-10T15:53:41.342Z,98742.52
2019-01-10T15:56:11.719Z,98747.42
2019-01-10T15:58:42.027Z,98742.44
2019-01-10T16:01:12.409Z,98742.69
2019-01-10T16:03:42.961Z,98746.56
2019-01-10T16:06:13.491Z,98740.95
2019-01-10T16:08:43.826Z,98723.13
2019-01-10T16:11:14.246Z,98724.26
2019-01-10T16:13:44.654Z,98738.77
2019-01-10T16:16:15.021Z,98745.76
2019-01-10T16:18:45.430Z,98730.50
2019-01-10T16:21:15.802Z,98624.02
2019-01-10T16:23:46.135Z,98730.72
2019-01-10T16:26:16.476Z,98748.48
2019-01-10T16:28:46.875Z,98754.91
2019-01-10T16:31:17.213Z,98754.91
2019-01-10T16:33:47.543Z,98755.96
2019-01-10T16:36:17.873Z,98747.23
2019-01-10T16:38:48.244Z,98754.59
2019-01-10T16:41:18.610Z,98735.48
2019-01-10T16:43:48.984Z,98735.48
2019-01-10T16:46:19.290Z,98726.09
2019-01-10T16:48:49.639Z,98736.97
2019-01-10T16:51:19.988Z,98730.19
2019-01-10T16:53:50.321Z,98735.42
2019-01-10T16:56:20.756Z,98748.77
2019-01-10T16:58:51.134Z,98774.30
2019-01-10T17:01:21.499Z,98774.30
2019-01-10T17:05:05.835Z,98771.97
2019-01-10T17:08:03.005Z,98759.00
2019-01-10T17:10:33.512Z,98773.27
2019-01-10T17:13:04.045Z,98773.27
2019-01-10T17:15:34.410Z,98788.39
2019-01-10T17:18:04.952Z,98768.69
2019-01-10T17:20:35.359Z,98750.06
2019-01-10T17:23:05.839Z,98750.06
2019-01-10T17:25:36.133Z,98745.94
2019-01-10T17:28:06.718Z,98746.08
2019-01-10T17:30:37.052Z,98780.29
2019-01-10T17:33:07.372Z,98776.27
2019-01-10T17:35:37.709Z,98780.16
2019-01-10T17:38:08.309Z,98766.59
2019-01-10T17:40:38.658Z,98729.09
2019-01-10T17:43:09.211Z,98709.39
2019-01-10T17:45:39.782Z,98697.32
2019-01-10T17:48:11.170Z,98713.66
2019-01-10T17:50:41.539Z,98757.58
2019-01-10T17:53:11.939Z,98757.58
2019-01-10T17:55:42.307Z,98783.58
2019-01-10T17:58:12.643Z,98785.72
2019-01-10T18:00:42.935Z,98785.72
2019-01-10T18:03:13.301Z,98779.97
2019-01-10T18:05:43.861Z,98774.12
2019-01-10T18:08:14.230Z,98774.12
2019-01-10T18:11:45.998Z,98811.23
2019-01-10T18:15:21.464Z,98811.23
2019-01-10T18:18:22.526Z,98825.72
2019-01-10T18:21:32.295Z,98825.72
2019-01-10T18:24:02.768Z,98915.30
2019-01-10T18:27:29.706Z,98856.13
2019-01-10T18:30:00.039Z,98865.52
2019-01-10T18:33:31.873Z,98849.53
2019-01-10T18:37:03.302Z,98849.53
2019-01-10T18:40:34.864Z,98834.41
2019-01-10T18:43:58.990Z,98834.41
2019-01-10T18:47:31.989Z,98846.74
2019-01-10T18:50:02.326Z,98851.05
2019-01-10T18:53:42.505Z,98844.34
2019-01-10T18:56:13.069Z,98796.14
2019-01-10T18:58:52.958Z,98827.34
2019-01-10T19:02:28.914Z,98827.34
2019-01-10T19:05:58.803Z,98845.66
2019-01-10T19:09:25.321Z,98845.66
2019-01-10T19:11:55.639Z,98851.10
2019-01-10T19:14:25.983Z,98834.45
2019-01-10T19:16:56.396Z,98838.03
2019-01-10T19:19:26.759Z,98826.33
2019-01-10T19:21:57.126Z,98841.44
2019-01-10T19:24:27.507Z,98849.33
2019-01-10T19:26:57.914Z,98849.33
2019-01-10T19:29:28.248Z,98847.09
2019-01-10T19:31:58.655Z,98829.04
2019-01-10T19:34:29.014Z,98831.52
2019-01-10T19:36:59.399Z,98831.52
2019-01-10T19:39:29.736Z,98827.17
2019-01-10T19:42:00.067Z,98819.87
2019-01-10T19:44:30.370Z,98826.63
2019-01-10T19:47:00.714Z,98840.80
2019-01-10T19:49:31.023Z,98841.16
2019-01-10T19:52:01.353Z,98837.21
2019-01-10T19:54:31.767Z,98827.87
2019-01-10T19:57:02.169Z,98826.28
2019-01-10T19:59:32.633Z,98814.34
2019-01-10T20:02:03.096Z,98823.39
2019-01-10T20:04:33.453Z,98832.84
2019-01-10T20:07:03.890Z,98839.45
2019-01-10T20:09:34.225Z,98839.75
2019-01-10T20:12:04.639Z,98837.83
2019-01-10T20:14:35.054Z,98824.46
2019-01-10T20:17:05.389Z,98840.30
2019-01-10T20:19:35.724Z,98840.30
2019-01-10T20:22:06.047Z,98858.88
2019-01-10T20:24:36.698Z,98863.09
2019-01-10T20:27:07.171Z,98866.67
2019-01-10T20:29:39.292Z,98871.34
2019-01-10T20:32:09.723Z,98875.97
2019-01-10T20:34:40.066Z,98861.72
2019-01-10T20:37:10.484Z,98869.97
2019-01-10T20:39:40.840Z,98863.09
2019-01-10T20:42:11.208Z,98848.47
2019-01-10T20:44:41.615Z,98721.56
2019-01-10T20:47:12.042Z,98844.00
2019-01-10T20:49:42.459Z,98853.43
2019-01-10T20:52:12.786Z,98853.43
2019-01-10T20:54:43.133Z,98892.67
2019-01-10T20:57:13.471Z,98892.67
2019-01-10T20:59:43.767Z,98912.02
2019-01-10T21:02:14.242Z,98898.77
2019-01-10T21:04:44.576Z,98898.36
2019-01-10T21:07:14.922Z,98903.48
2019-01-10T21:09:45.258Z,98886.34
2019-01-10T21:12:15.594Z,98886.34
2019-01-10T21:14:45.930Z,98895.87
2019-01-10T21:17:16.278Z,98910.29
2019-01-10T21:19:46.585Z,98910.29
2019-01-10T21:22:16.922Z,98910.34
2019-01-10T21:24:48.638Z,98897.05
2019-01-10T21:27:18.984Z,98906.80
2019-01-10T21:29:49.359Z,98906.80
2019-01-10T21:32:19.703Z,98920.81
2019-01-10T21:34:50.005Z,98920.81
2019-01-10T21:37:20.560Z,98939.95
2019-01-10T21:39:50.968Z,98939.95
2019-01-10T21:42:21.300Z,98944.27
2019-01-10T21:44:51.741Z,98948.72
2019-01-10T21:47:22.101Z,98960.67
2019-01-10T21:49:52.525Z,98965.13
2019-01-10T21:52:22.897Z,98974.09
2019-01-10T21:54:53.659Z,98978.41
2019-01-10T21:57:30.319Z,98982.94
2019-01-10T21:59:56.139Z,98968.40
2019-01-10T22:02:26.481Z,98973.66
2019-01-10T22:04:56.788Z,98985.40
2019-01-10T22:07:27.153Z,98982.31
2019-01-10T22:09:57.492Z,98952.62
2019-01-10T22:12:27.865Z,98937.95
2019-01-10T22:14:58.197Z,98934.87
2019-01-10T22:17:28.605Z,98936.37
2019-01-10T22:19:58.930Z,98846.90
2019-01-10T22:22:29.291Z,98931.47
2019-01-10T22:24:59.627Z,98922.94
2019-01-10T22:27:29.929Z,98920.34
2019-01-10T22:30:00.636Z,98926.72
2019-01-10T22:32:30.963Z,98913.89
2019-01-10T22:35:01.433Z,98912.13
2019-01-10T22:37:31.819Z,98916.24
2019-01-10T22:40:02.229Z,98917.88
2019-01-10T22:42:32.561Z,98923.97
2019-01-10T22:45:02.981Z,98924.81
2019-01-10T22:47:33.313Z,98921.52
2019-01-10T22:50:03.782Z,98925.34
2019-01-10T22:52:34.186Z,98931.67
2019-01-10T22:55:05.152Z,98933.63
2019-01-10T22:57:35.479Z,98948.61
2019-01-10T23:00:14.543Z,98963.23
2019-01-10T23:02:45.008Z,98968.22
2019-01-10T23:05:15.339Z,98967.39
2019-01-10T23:07:45.640Z,98973.72
2019-01-10T23:10:17.493Z,98972.25
2019-01-10T23:12:47.853Z,98990.98
2019-01-10T23:15:33.545Z,98988.81
2019-01-10T23:18:05.459Z,98992.10
2019-01-10T23:20:36.068Z,98980.39
2019-01-10T23:23:08.861Z,98997.17
2019-01-10T23:25:39.515Z,99009.31
2019-01-10T23:28:09.921Z,99015.91
2019-01-10T23:30:51.253Z,99019.73
2019-01-10T23:33:21.661Z,99019.09
2019-01-10T23:35:57.018Z,99031.36
2019-01-10T23:38:27.555Z,99031.34
2019-01-10T23:40:57.980Z,99032.55
2019-01-10T23:43:28.464Z,99033.78
2019-01-10T23:45:58.941Z,99030.81
2019-01-10T23:48:29.382Z,99046.59
2019-01-10T23:50:59.777Z,99045.12
2019-01-10T23:53:30.196Z,99058.42
2019-01-10T23:56:00.572Z,99058.11
2019-01-10T23:58:30.867Z,99067.89
